Time;durP1;ratioP1;P1;durP2;ratioP2;P2;SDS_P1;SDS_P2;PMS_P1;PMS_P2;Temp;Humidity;BMP_temperature;BMP_pressure;BME280_temperature;BME280_humidity;BME280_pressure;Samples;Min_cycle;Max_cycle;Signal;HPM_P1;HPM_P2
2022/04/30 00:02:13;;;;;;;14.05;7.38;;;;;;;7.84;72.95;102499.56;4977771;28;20395;-76
2022/04/30 00:04:44;;;;;;;17.23;7.43;;;;;;;7.92;73.26;102499.91;4982720;28;20053;-77
2022/04/30 00:07:16;;;;;;;11.90;6.50;;;;;;;7.80;73.75;102495.53;4983751;28;20376;-76
2022/04/30 00:09:43;;;;;;;20.02;7.35;;;;;;;7.77;73.93;102491.34;4980710;28;20069;-76
2022/04/30 00:12:12;;;;;;;16.38;6.90;;;;;;;7.74;73.86;102490.72;4987800;28;20117;-77
2022/04/30 00:14:39;;;;;;;13.00;7.28;;;;;;;7.71;73.79;102493.50;4974527;28;20260;-76
2022/04/30 00:17:06;;;;;;;19.50;7.32;;;;;;;7.69;73.73;102497.94;4989222;28;20035;-76
2022/04/30 00:19:31;;;;;;;11.82;6.55;;;;;;;7.62;74.06;102502.66;4986366;28;20034;-76
2022/04/30 00:21:57;;;;;;;13.85;6.95;;;;;;;7.57;74.56;102504.66;4996254;28;20037;-76
2022/04/30 00:24:26;;;;;;;14.10;7.10;;;;;;;7.57;74.78;102500.38;4984917;28;20036;-76
2022/04/30 00:26:52;;;;;;;17.48;7.32;;;;;;;7.56;74.24;102493.53;5001663;28;20053;-76
2022/04/30 00:29:18;;;;;;;19.25;8.50;;;;;;;7.44;74.60;102502.03;5010173;28;20261;-76
2022/04/30 00:31:44;;;;;;;13.25;7.63;;;;;;;7.53;74.45;102495.47;5000134;28;20026;-76
2022/04/30 00:34:10;;;;;;;12.48;6.75;;;;;;;7.43;74.89;102491.81;4982572;28;20387;-74
2022/04/30 00:36:36;;;;;;;17.65;7.82;;;;;;;7.46;74.71;102494.19;4990805;28;20193;-75
2022/04/30 00:39:03;;;;;;;15.48;7.85;;;;;;;7.43;74.89;102484.06;4994921;28;20505;-76
2022/04/30 00:41:32;;;;;;;12.68;7.07;;;;;;;7.41;74.49;102495.28;4978349;28;20428;-76
2022/04/30 00:43:58;;;;;;;13.80;6.63;;;;;;;7.37;75.27;102485.28;4983522;28;20525;-76
2022/04/30 00:46:24;;;;;;;18.52;7.47;;;;;;;7.31;75.24;102493.38;4987071;28;20046;-76
2022/04/30 00:48:51;;;;;;;14.77;6.93;;;;;;;7.27;75.48;102487.59;4987335;28;20034;-76
2022/04/30 00:51:20;;;;;;;11.18;6.03;;;;;;;7.24;75.83;102485.19;4983661;28;20494;-76
2022/04/30 00:53:48;;;;;;;17.00;7.20;;;;;;;7.22;75.80;102485.25;4981290;28;20030;-76
2022/04/30 00:56:18;;;;;;;10.55;6.50;;;;;;;7.16;75.92;102482.25;4983766;28;20030;-76
2022/04/30 00:58:47;;;;;;;21.55;7.28;;;;;;;7.11;76.27;102490.25;4982123;28;20035;-76
2022/04/30 01:01:14;;;;;;;15.07;7.00;;;;;;;7.14;76.74;102497.81;4985617;28;20095;-75
2022/04/30 01:04:03;;;;;;;16.05;8.40;;;;;;;7.16;76.44;102490.81;5000592;28;20079;-76
2022/04/30 01:06:44;;;;;;;11.93;6.70;;;;;;;7.19;76.29;102489.78;5067581;28;20026;-77
2022/04/30 01:09:09;;;;;;;12.77;6.50;;;;;;;7.26;76.09;102487.66;4995301;28;20399;-75
2022/04/30 01:11:36;;;;;;;16.90;7.30;;;;;;;7.11;76.71;102490.25;4983498;28;20048;-75
2022/04/30 01:14:01;;;;;;;16.00;7.07;;;;;;;7.12;76.64;102486.75;4977596;28;20062;-74
2022/04/30 01:16:28;;;;;;;13.27;6.28;;;;;;;7.16;76.57;102487.41;4980072;28;20436;-75
2022/04/30 01:18:54;;;;;;;16.25;7.03;;;;;;;7.13;76.83;102485.81;4982865;28;20090;-74
2022/04/30 01:21:24;;;;;;;17.00;6.63;;;;;;;7.17;77.01;102481.31;4987621;28;20038;-74
2022/04/30 01:23:49;;;;;;;14.20;6.88;;;;;;;7.21;76.77;102480.19;4978929;28;20030;-75
2022/04/30 01:26:17;;;;;;;17.38;6.45;;;;;;;7.18;76.14;102482.97;4979726;28;20417;-74
2022/04/30 01:28:44;;;;;;;13.77;6.70;;;;;;;7.14;76.12;102482.34;4979126;28;20146;-75
2022/04/30 01:39:29;;;;;;;19.10;6.38;;;;;;;7.07;75.83;102467.31;4981212;28;20113;-76
2022/04/30 01:41:55;;;;;;;17.65;6.20;;;;;;;7.08;76.13;102466.38;4980210;28;20533;-75
2022/04/30 01:44:22;;;;;;;10.20;6.25;;;;;;;6.98;76.24;102463.53;4991014;28;20060;-75
2022/04/30 01:46:48;;;;;;;11.35;5.78;;;;;;;6.92;76.58;102472.47;5015050;27;20045;-76
2022/04/30 01:49:16;;;;;;;12.63;6.78;;;;;;;6.98;76.77;102466.09;4971278;28;20528;-75
2022/04/30 01:51:51;;;;;;;12.95;5.93;;;;;;;6.94;76.79;102464.63;4980986;28;20034;-76
2022/04/30 01:54:17;;;;;;;12.88;6.53;;;;;;;6.90;76.80;102461.41;4982835;28;20041;-75
2022/04/30 01:56:42;;;;;;;17.05;5.82;;;;;;;6.84;77.00;102456.63;4981300;28;20120;-75
2022/04/30 01:59:13;;;;;;;13.27;6.60;;;;;;;6.87;77.05;102465.91;4974200;28;20153;-74
2022/04/30 02:01:43;;;;;;;13.30;6.32;;;;;;;6.71;77.41;102460.84;4980138;28;20042;-76
2022/04/30 02:04:10;;;;;;;14.77;6.45;;;;;;;6.64;77.63;102455.22;4983008;28;20037;-74
2022/04/30 02:06:35;;;;;;;19.58;6.53;;;;;;;6.62;78.17;102451.91;4999141;28;20363;-76
2022/04/30 02:09:01;;;;;;;13.43;6.68;;;;;;;6.63;77.88;102453.56;4979619;28;20036;-76
2022/04/30 02:11:26;;;;;;;13.75;6.22;;;;;;;6.58;78.49;102448.66;4982380;28;21483;-75
2022/04/30 02:13:53;;;;;;;12.15;6.43;;;;;;;6.52;78.80;102445.63;4979354;28;20054;-76
2022/04/30 02:16:23;;;;;;;11.88;6.50;;;;;;;6.56;79.38;102454.84;4977380;28;20042;-76
2022/04/30 02:18:50;;;;;;;15.20;7.28;;;;;;;6.55;79.11;102448.00;4978126;28;20107;-76
2022/04/30 02:21:21;;;;;;;13.98;7.30;;;;;;;6.50;79.22;102450.03;4984332;28;20037;-76
2022/04/30 02:23:51;;;;;;;14.60;6.95;;;;;;;6.47;79.50;102453.63;4981653;28;20475;-75
2022/04/30 02:26:17;;;;;;;16.42;7.43;;;;;;;6.39;80.41;102454.06;4983878;28;20042;-76
2022/04/30 02:28:43;;;;;;;15.38;7.30;;;;;;;6.46;79.89;102448.53;4980046;28;20111;-75
2022/04/30 02:31:22;;;;;;;20.83;7.40;;;;;;;6.46;79.76;102453.69;4982811;28;20034;-75
2022/04/30 02:33:47;;;;;;;13.65;7.05;;;;;;;6.39;79.95;102448.91;4996014;28;20121;-75
2022/04/30 02:36:15;;;;;;;14.77;7.38;;;;;;;6.33;80.51;102449.25;4981429;28;20037;-75
2022/04/30 02:38:41;;;;;;;17.92;7.30;;;;;;;6.37;80.48;102453.31;4983320;28;20020;-75
2022/04/30 02:41:07;;;;;;;12.80;7.07;;;;;;;6.30;80.80;102448.59;4978977;28;20058;-74
2022/04/30 02:43:33;;;;;;;16.70;7.53;;;;;;;6.34;80.54;102450.91;4983146;28;20384;-75
2022/04/30 02:45:58;;;;;;;15.48;7.40;;;;;;;6.34;80.49;102440.59;4991155;28;20660;-74
2022/04/30 02:48:24;;;;;;;16.20;7.75;;;;;;;6.31;80.48;102448.53;4976596;28;20027;-74
2022/04/30 02:50:51;;;;;;;16.02;7.55;;;;;;;6.21;80.57;102440.47;4982993;28;20494;-75
2022/04/30 02:53:17;;;;;;;11.45;6.60;;;;;;;6.22;80.79;102441.31;4981897;28;20469;-74
2022/04/30 02:55:42;;;;;;;11.40;6.80;;;;;;;6.21;80.88;102450.78;4985387;28;20022;-75
2022/04/30 03:00:52;;;;;;;13.93;7.20;;;;;;;6.20;80.69;102438.00;4998853;28;20474;-75
2022/04/30 03:03:38;;;;;;;12.57;6.68;;;;;;;6.26;80.63;102444.56;4971355;28;20087;-74
2022/04/30 03:06:05;;;;;;;19.90;7.00;;;;;;;6.19;80.62;102442.31;4969892;28;20030;-74
2022/04/30 03:08:32;;;;;;;11.88;6.57;;;;;;;6.16;80.56;102439.06;5052893;28;20121;-74
2022/04/30 03:10:58;;;;;;;20.27;7.68;;;;;;;6.17;80.40;102443.31;4987258;28;20034;-74
2022/04/30 03:13:25;;;;;;;14.13;7.05;;;;;;;6.09;81.06;102435.22;4978828;28;20767;-74
2022/04/30 03:15:52;;;;;;;15.18;7.22;;;;;;;6.03;80.94;102438.97;4984991;28;20022;-74
2022/04/30 03:23:38;;;;;;;14.05;7.68;;;;;;;5.92;82.38;102439.53;4984777;28;20479;-74
2022/04/30 03:26:05;;;;;;;16.38;7.22;;;;;;;5.92;82.73;102449.00;5000308;28;20312;-75
2022/04/30 03:28:32;;;;;;;15.18;7.32;;;;;;;5.91;82.98;102443.00;4980799;28;20031;-74
2022/04/30 03:30:58;;;;;;;17.85;7.70;;;;;;;5.87;82.99;102451.81;4985533;28;20112;-75
2022/04/30 03:33:24;;;;;;;11.70;6.30;;;;;;;5.85;83.19;102446.75;4964144;28;20842;-74
2022/04/30 03:35:49;;;;;;;14.80;7.30;;;;;;;5.81;83.42;102447.00;4983955;28;20268;-75
2022/04/30 03:38:15;;;;;;;13.07;7.20;;;;;;;5.77;83.37;102437.81;4982264;28;20398;-74
2022/04/30 03:40:40;;;;;;;15.57;6.43;;;;;;;5.72;84.23;102439.78;4981071;28;20410;-74
2022/04/30 03:43:07;;;;;;;18.23;7.32;;;;;;;5.70;83.96;102439.88;4978835;28;20034;-74
2022/04/30 03:45:33;;;;;;;16.60;7.18;;;;;;;5.65;83.85;102434.97;4999682;28;20068;-75
2022/04/30 03:47:58;;;;;;;15.20;7.15;;;;;;;5.58;84.31;102437.97;4985642;28;20109;-75
2022/04/30 03:50:24;;;;;;;19.52;7.35;;;;;;;5.54;84.51;102433.88;4981208;28;20508;-74
2022/04/30 03:52:49;;;;;;;16.40;7.68;;;;;;;5.54;84.64;102436.47;4986522;28;20033;-74
2022/04/30 03:55:15;;;;;;;17.15;7.93;;;;;;;5.51;84.96;102440.03;4983728;28;20140;-75
2022/04/30 03:57:41;;;;;;;15.68;6.72;;;;;;;5.51;84.97;102439.22;5067342;28;20485;-74
2022/04/30 04:00:09;;;;;;;15.13;7.28;;;;;;;5.48;85.26;102435.06;4992140;28;20373;-74
2022/04/30 04:02:43;;;;;;;13.90;6.97;;;;;;;5.46;84.64;102434.31;4983565;28;20074;-76
2022/04/30 04:05:13;;;;;;;17.13;7.28;;;;;;;5.39;85.34;102436.41;4967836;28;20034;-74
2022/04/30 04:07:42;;;;;;;14.93;8.07;;;;;;;5.37;85.21;102433.06;4988989;28;20404;-74
2022/04/30 04:10:10;;;;;;;11.15;6.70;;;;;;;5.37;85.36;102439.94;4983855;28;20041;-74
2022/04/30 04:12:39;;;;;;;16.13;7.65;;;;;;;5.26;86.00;102446.50;4982471;28;20064;-74
2022/04/30 04:17:51;;;;;;;17.25;7.32;;;;;;;5.19;85.81;102440.00;4984816;28;20859;-74
2022/04/30 04:20:18;;;;;;;16.88;6.78;;;;;;;5.21;85.88;102452.78;4980568;28;20038;-74
2022/04/30 04:22:44;;;;;;;14.27;7.63;;;;;;;5.17;86.02;102451.31;4966584;28;20056;-74
2022/04/30 04:27:55;;;;;;;17.77;8.07;;;;;;;5.04;86.37;102448.53;4988609;28;20088;-74
2022/04/30 04:30:31;;;;;;;19.20;7.47;;;;;;;5.01;86.31;102454.69;4981840;28;20051;-74
2022/04/30 04:32:58;;;;;;;16.67;7.70;;;;;;;5.01;87.02;102453.81;5065540;28;20083;-74
2022/04/30 04:35:24;;;;;;;20.58;7.28;;;;;;;5.00;87.32;102459.88;4985532;28;21955;-75
2022/04/30 04:37:51;;;;;;;21.77;8.20;;;;;;;5.15;86.44;102460.84;4985403;28;20479;-74
2022/04/30 04:40:17;;;;;;;16.20;7.60;;;;;;;5.08;86.71;102468.03;4981388;28;20095;-76
2022/04/30 04:42:44;;;;;;;15.20;7.95;;;;;;;5.09;87.46;102467.13;4978536;28;20035;-74
2022/04/30 04:45:11;;;;;;;15.57;7.43;;;;;;;5.09;87.08;102459.41;4989173;28;20479;-75
2022/04/30 04:47:41;;;;;;;15.30;7.70;;;;;;;5.11;87.43;102457.59;4985471;28;20028;-74
2022/04/30 04:50:12;;;;;;;14.98;7.03;;;;;;;5.18;87.26;102465.81;4979727;28;20038;-75
2022/04/30 04:52:39;;;;;;;19.10;8.02;;;;;;;5.20;86.99;102474.31;5051349;28;20034;-75
2022/04/30 04:55:05;;;;;;;18.95;7.78;;;;;;;5.18;86.77;102470.94;5065676;28;20034;-75
2022/04/30 04:57:30;;;;;;;16.23;7.65;;;;;;;5.18;86.76;102469.22;5008776;28;20133;-74
2022/04/30 04:59:57;;;;;;;18.13;7.97;;;;;;;5.14;86.94;102474.59;4984423;28;20440;-75
2022/04/30 05:02:23;;;;;;;17.45;7.80;;;;;;;5.15;86.81;102464.25;4980591;28;20059;-75
2022/04/30 05:04:48;;;;;;;14.82;7.63;;;;;;;5.11;87.52;102472.19;4985162;28;20038;-74
2022/04/30 05:07:14;;;;;;;18.10;8.52;;;;;;;5.08;87.38;102462.88;4981224;28;20041;-75
2022/04/30 05:09:39;;;;;;;20.13;7.63;;;;;;;5.08;87.84;102483.47;5048327;28;20033;-74
2022/04/30 05:12:07;;;;;;;17.70;7.97;;;;;;;5.11;88.29;102477.34;4984839;28;20475;-75
2022/04/30 05:14:33;;;;;;;18.60;7.82;;;;;;;5.15;87.66;102482.25;4980620;28;20035;-75
2022/04/30 05:17:00;;;;;;;18.83;8.50;;;;;;;5.11;88.41;102487.63;4982937;28;20134;-75
2022/04/30 05:19:26;;;;;;;24.30;10.00;;;;;;;5.12;88.65;102490.09;4981372;28;20452;-74
2022/04/30 05:21:51;;;;;;;16.42;8.00;;;;;;;5.17;88.50;102487.31;4983753;28;20034;-75
2022/04/30 05:24:17;;;;;;;15.43;8.18;;;;;;;5.20;88.74;102487.16;4979310;28;20079;-75
2022/04/30 05:26:42;;;;;;;18.67;8.60;;;;;;;5.25;88.37;102498.88;4970801;28;20042;-75
2022/04/30 05:29:07;;;;;;;20.08;9.23;;;;;;;5.31;88.39;102489.97;4978820;28;20442;-75
2022/04/30 05:31:33;;;;;;;16.55;9.55;;;;;;;5.33;88.47;102493.31;4988241;28;20042;-76
2022/04/30 05:33:59;;;;;;;17.30;8.68;;;;;;;5.35;88.04;102496.66;4975266;28;20039;-75
2022/04/30 05:36:24;;;;;;;19.70;9.13;;;;;;;5.44;88.05;102501.31;4976243;28;20549;-75
2022/04/30 05:38:51;;;;;;;19.77;9.50;;;;;;;5.51;87.79;102504.38;4980200;28;20441;-75
2022/04/30 05:41:17;;;;;;;25.25;9.15;;;;;;;5.57;87.57;102505.78;4978959;28;20062;-75
2022/04/30 05:43:42;;;;;;;29.13;10.52;;;;;;;5.59;87.80;102502.22;4962598;28;20102;-75
2022/04/30 05:46:08;;;;;;;17.52;9.45;;;;;;;5.61;88.34;102503.00;4984282;28;20034;-75
2022/04/30 05:48:34;;;;;;;23.10;9.02;;;;;;;5.69;87.93;102510.28;4974460;28;20042;-75
2022/04/30 05:51:01;;;;;;;22.52;9.57;;;;;;;5.75;87.46;102509.97;4978165;28;20034;-75
2022/04/30 05:53:27;;;;;;;19.75;8.98;;;;;;;5.94;87.18;102511.53;5006223;28;20070;-75
2022/04/30 05:55:52;;;;;;;23.13;10.05;;;;;;;6.18;86.49;102504.25;4982366;28;20129;-74
2022/04/30 05:58:18;;;;;;;23.83;10.40;;;;;;;6.54;85.75;102503.91;4977294;28;20030;-75
2022/04/30 06:00:44;;;;;;;20.25;9.68;;;;;;;7.03;84.32;102502.78;4983346;28;20038;-75
2022/04/30 06:03:10;;;;;;;22.48;10.27;;;;;;;7.35;81.48;102497.44;4979359;28;20407;-75
2022/04/30 06:05:37;;;;;;;22.70;9.43;;;;;;;7.73;79.50;102492.47;4981809;28;20537;-75
2022/04/30 06:08:06;;;;;;;20.35;8.35;;;;;;;7.80;77.74;102496.34;4983428;28;20038;-75
2022/04/30 06:10:31;;;;;;;19.55;8.77;;;;;;;7.90;77.30;102485.44;4977762;28;20027;-75
2022/04/30 06:12:57;;;;;;;20.33;9.63;;;;;;;8.05;76.87;102487.03;4979719;28;20465;-74
2022/04/30 06:15:23;;;;;;;19.25;8.70;;;;;;;8.36;76.81;102493.66;4977441;28;20034;-75
2022/04/30 06:17:48;;;;;;;23.40;9.15;;;;;;;8.46;76.01;102495.66;4992021;28;20023;-75
2022/04/30 06:20:14;;;;;;;23.20;8.88;;;;;;;8.51;75.68;102491.00;4979551;28;20482;-75
2022/04/30 06:22:40;;;;;;;16.15;8.77;;;;;;;8.68;75.22;102487.28;4979907;28;20034;-75
2022/04/30 06:25:06;;;;;;;18.58;8.82;;;;;;;8.73;74.59;102496.41;4991189;28;20032;-75
2022/04/30 06:27:32;;;;;;;27.15;8.63;;;;;;;8.90;73.85;102495.25;4980249;28;20042;-75
2022/04/30 06:29:59;;;;;;;24.60;8.73;;;;;;;8.95;73.93;102494.97;5048335;28;21086;-76
2022/04/30 06:32:24;;;;;;;21.65;8.50;;;;;;;8.90;73.89;102497.03;4985967;28;20068;-76
2022/04/30 06:34:50;;;;;;;18.08;9.10;;;;;;;8.61;75.29;102505.00;4980951;28;20034;-75
2022/04/30 06:37:17;;;;;;;21.23;8.73;;;;;;;8.49;75.72;102504.00;4979289;28;20027;-75
2022/04/30 06:39:43;;;;;;;35.30;14.88;;;;;;;8.38;75.81;102512.47;4982728;28;20059;-75
2022/04/30 06:42:08;;;;;;;18.30;8.63;;;;;;;8.25;77.44;102508.16;4980166;28;20044;-75
2022/04/30 06:44:34;;;;;;;20.60;8.95;;;;;;;8.22;77.23;102508.38;4966371;28;20030;-76
2022/04/30 06:46:59;;;;;;;23.50;9.25;;;;;;;8.15;77.24;102505.34;4979758;28;20033;-75
2022/04/30 06:49:25;;;;;;;20.92;10.10;;;;;;;8.16;78.02;102504.44;4985346;28;20034;-75
2022/04/30 06:51:50;;;;;;;21.40;9.35;;;;;;;8.39;77.38;102502.94;4979339;28;20460;-75
2022/04/30 06:57:07;;;;;;;21.00;8.82;;;;;;;8.61;76.48;102512.75;4980662;28;20126;-76
2022/04/30 06:59:37;;;;;;;23.60;10.23;;;;;;;8.85;75.14;102515.44;4987971;28;20041;-76
2022/04/30 07:02:06;;;;;;;23.85;10.05;;;;;;;8.85;74.80;102499.91;4982789;28;20049;-76
2022/04/30 07:04:35;;;;;;;18.45;10.20;;;;;;;8.49;75.35;102509.19;4983513;28;20069;-75
2022/04/30 07:07:00;;;;;;;27.35;12.20;;;;;;;8.35;75.76;102504.91;5008875;28;20038;-75
2022/04/30 07:09:28;;;;;;;23.48;11.82;;;;;;;8.34;76.79;102510.16;4979529;28;20529;-75
2022/04/30 07:11:54;;;;;;;22.77;10.45;;;;;;;8.88;75.01;102504.06;4983723;28;20030;-76
2022/04/30 07:14:20;;;;;;;25.20;11.65;;;;;;;8.72;74.86;102507.69;4980656;28;20095;-76
2022/04/30 07:16:45;;;;;;;20.75;11.00;;;;;;;9.49;72.23;102510.22;4986620;28;20046;-75
2022/04/30 07:19:11;;;;;;;25.80;11.93;;;;;;;9.10;73.14;102513.81;4979403;28;20026;-75
2022/04/30 07:21:36;;;;;;;18.70;10.43;;;;;;;9.69;71.17;102515.75;4981266;28;20451;-75
2022/04/30 07:24:02;;;;;;;27.60;11.60;;;;;;;9.47;71.89;102508.66;4978847;28;20034;-76
2022/04/30 07:26:28;;;;;;;22.92;11.70;;;;;;;9.68;71.70;102519.28;4981556;28;20115;-75
2022/04/30 07:28:54;;;;;;;20.70;10.30;;;;;;;9.74;70.42;102511.09;5011518;28;20030;-75
2022/04/30 07:31:19;;;;;;;18.38;9.95;;;;;;;9.65;70.97;102515.16;5044041;28;20076;-75
2022/04/30 07:33:46;;;;;;;21.30;10.80;;;;;;;9.87;70.96;102506.69;4973833;28;20038;-75
2022/04/30 07:36:12;;;;;;;16.35;9.25;;;;;;;9.89;70.85;102515.19;4982213;28;20450;-75
2022/04/30 07:38:39;;;;;;;19.48;9.57;;;;;;;9.83;70.28;102510.44;4980318;28;20030;-75
2022/04/30 07:41:05;;;;;;;19.58;9.63;;;;;;;11.04;67.99;102505.88;4983088;28;20391;-76
2022/04/30 07:43:30;;;;;;;17.83;8.65;;;;;;;10.70;66.85;102505.84;4993853;28;20145;-76
2022/04/30 07:45:56;;;;;;;18.58;9.82;;;;;;;10.22;67.76;102507.66;4979977;28;20031;-76
2022/04/30 07:48:21;;;;;;;18.95;9.38;;;;;;;10.07;68.74;102507.00;4977143;28;20031;-75
2022/04/30 07:50:47;;;;;;;15.95;8.85;;;;;;;9.98;69.12;102511.06;4980009;28;20115;-75
2022/04/30 07:53:15;;;;;;;15.20;7.75;;;;;;;9.63;67.26;102495.47;4988436;28;20472;-75
2022/04/30 07:55:41;;;;;;;15.55;7.28;;;;;;;9.50;68.88;102504.09;4981400;28;21425;-76
2022/04/30 07:58:08;;;;;;;15.90;8.15;;;;;;;9.78;68.44;102504.75;4978447;28;20030;-75
2022/04/30 08:00:33;;;;;;;14.07;7.82;;;;;;;11.13;65.18;102490.53;4978834;28;20057;-75
2022/04/30 08:02:59;;;;;;;14.60;7.22;;;;;;;12.52;63.40;102485.50;5012805;28;20479;-75
2022/04/30 08:05:26;;;;;;;14.15;6.03;;;;;;;13.58;57.34;102479.94;4982162;28;20107;-75
2022/04/30 08:07:52;;;;;;;14.30;6.20;;;;;;;13.44;56.40;102485.50;4979190;28;20404;-76
2022/04/30 08:10:18;;;;;;;16.92;6.07;;;;;;;13.97;55.10;102477.31;4973407;28;20107;-76
2022/04/30 08:12:44;;;;;;;12.80;6.78;;;;;;;14.54;51.82;102477.41;4981093;28;20038;-76
2022/04/30 08:15:10;;;;;;;19.65;6.53;;;;;;;14.96;50.70;102473.59;4986674;28;20086;-75
2022/04/30 08:17:35;;;;;;;10.52;6.22;;;;;;;14.64;51.62;102473.97;4984149;28;20320;-76
2022/04/30 08:20:01;;;;;;;12.60;6.53;;;;;;;15.12;51.18;102478.19;4985103;28;20038;-76
2022/04/30 08:22:27;;;;;;;4.88;3.20;;;;;;;14.78;46.89;102476.13;4982573;28;20026;-76
2022/04/30 08:24:53;;;;;;;7.35;3.97;;;;;;;14.79;45.69;102472.56;4987739;28;20031;-75
2022/04/30 08:27:18;;;;;;;7.07;2.75;;;;;;;14.28;46.35;102476.34;4982484;28;20026;-75
2022/04/30 08:29:44;;;;;;;7.80;2.78;;;;;;;14.36;43.48;102466.88;4981262;28;20111;-76
2022/04/30 08:32:10;;;;;;;6.10;3.22;;;;;;;14.71;47.52;102468.06;4988371;28;20368;-76
2022/04/30 08:34:36;;;;;;;6.40;3.45;;;;;;;15.52;46.09;102466.50;4988093;28;20091;-76
2022/04/30 08:37:01;;;;;;;8.20;4.30;;;;;;;15.94;45.17;102472.00;4970366;28;20694;-76
2022/04/30 08:39:26;;;;;;;8.68;2.80;;;;;;;15.81;41.59;102462.91;4983540;28;20038;-77
2022/04/30 08:41:53;;;;;;;8.65;4.15;;;;;;;16.13;43.99;102460.56;4986995;28;20026;-76
2022/04/30 08:44:18;;;;;;;10.85;4.18;;;;;;;16.08;44.11;102464.59;4970035;28;20041;-76
2022/04/30 08:46:45;;;;;;;9.40;5.05;;;;;;;15.85;44.56;102461.63;4992720;28;20457;-76
2022/04/30 08:49:11;;;;;;;11.80;5.00;;;;;;;15.49;45.40;102462.41;4983982;28;20018;-77
2022/04/30 08:51:38;;;;;;;7.25;4.43;;;;;;;15.55;45.17;102458.38;4981058;28;20065;-76
2022/04/30 08:54:03;;;;;;;9.55;4.97;;;;;;;14.53;47.20;102467.91;4977776;28;20046;-76
2022/04/30 08:56:29;;;;;;;8.85;4.95;;;;;;;13.55;49.60;102467.16;4965039;28;20038;-76
2022/04/30 08:59:02;;;;;;;12.48;5.03;;;;;;;13.57;48.81;102467.84;4988102;28;20030;-76
2022/04/30 09:01:28;;;;;;;9.07;4.35;;;;;;;13.88;48.35;102467.75;4977402;28;20102;-76
2022/04/30 09:03:55;;;;;;;7.10;4.45;;;;;;;14.91;48.81;102460.94;4982908;28;20034;-77
2022/04/30 09:06:20;;;;;;;9.75;4.45;;;;;;;15.24;45.63;102458.72;4982065;28;20038;-77
2022/04/30 09:08:50;;;;;;;6.65;3.55;;;;;;;15.69;44.36;102452.66;4989554;28;20060;-77
2022/04/30 09:11:15;;;;;;;8.27;3.40;;;;;;;15.82;41.16;102446.25;5011915;28;20034;-76
2022/04/30 09:13:45;;;;;;;7.90;3.58;;;;;;;15.84;42.20;102446.91;4983846;28;20383;-77
2022/04/30 09:16:21;;;;;;;8.20;3.83;;;;;;;16.41;42.27;102436.03;4981682;28;20088;-76
2022/04/30 09:18:49;;;;;;;8.00;4.38;;;;;;;16.20;43.51;102437.22;4983001;28;21369;-76
2022/04/30 09:21:16;;;;;;;7.85;4.68;;;;;;;16.09;42.88;102438.28;4959244;28;20042;-77
2022/04/30 09:23:42;;;;;;;5.55;3.75;;;;;;;15.56;41.91;102437.34;4982385;28;20034;-76
2022/04/30 09:26:09;;;;;;;6.00;3.60;;;;;;;15.48;43.75;102441.66;4968074;28;20088;-77
2022/04/30 09:28:36;;;;;;;13.95;4.38;;;;;;;15.24;43.83;102439.59;5009286;28;20030;-77
2022/04/30 09:31:13;;;;;;;6.53;3.60;;;;;;;14.76;44.70;102446.72;4992282;28;20039;-77
2022/04/30 09:33:51;;;;;;;6.47;3.75;;;;;;;14.57;45.54;102442.38;4985359;28;20046;-76
2022/04/30 09:39:18;;;;;;;6.78;3.30;;;;;;;15.43;42.97;102441.28;4984817;28;20496;-77
2022/04/30 09:41:44;;;;;;;5.80;3.17;;;;;;;16.02;43.41;102433.81;4977316;28;20027;-76
2022/04/30 09:44:12;;;;;;;7.90;4.07;;;;;;;16.36;44.93;102431.25;5053494;28;20048;-76
2022/04/30 09:46:40;;;;;;;7.55;4.05;;;;;;;16.33;42.19;102428.94;4968190;28;20037;-76
2022/04/30 09:54:37;;;;;;;7.30;3.92;;;;;;;14.52;46.82;102431.50;4981863;28;20479;-76
2022/04/30 09:57:07;;;;;;;10.50;4.60;;;;;;;14.24;45.71;102431.47;4977413;28;20038;-76
2022/04/30 09:59:38;;;;;;;8.77;4.10;;;;;;;14.59;44.41;102424.78;4977734;28;20091;-77
2022/04/30 10:02:05;;;;;;;5.65;3.10;;;;;;;15.11;44.89;102419.06;4980582;28;20125;-77
2022/04/30 10:04:33;;;;;;;8.40;3.83;;;;;;;15.63;44.49;102419.22;4981873;28;20119;-76
2022/04/30 10:07:00;;;;;;;5.40;3.75;;;;;;;15.81;43.52;102421.88;4970663;28;20129;-76
2022/04/30 10:09:29;;;;;;;5.95;3.63;;;;;;;15.46;43.29;102420.06;4993612;28;20030;-76
2022/04/30 10:12:26;;;;;;;8.73;3.60;;;;;;;15.33;43.77;102423.03;4975447;28;20038;-76
2022/04/30 10:15:11;;;;;;;10.65;5.35;;;;;;;15.63;43.78;102407.97;4997135;28;20092;-76
2022/04/30 10:17:41;;;;;;;4.22;3.03;;;;;;;16.04;42.62;102416.16;4973820;28;20402;-77
2022/04/30 10:20:19;;;;;;;7.93;2.88;;;;;;;15.38;43.88;102411.16;4984101;28;20038;-77
2022/04/30 10:22:51;;;;;;;7.82;3.22;;;;;;;15.01;43.94;102413.88;4977244;28;20546;-76
2022/04/30 10:25:17;;;;;;;5.70;2.88;;;;;;;15.35;43.44;102414.09;4963712;28;20042;-77
2022/04/30 10:27:46;;;;;;;6.47;3.00;;;;;;;15.38;43.59;102412.97;4987333;28;20038;-77
2022/04/30 10:30:27;;;;;;;7.38;2.85;;;;;;;15.76;45.33;102405.81;4981501;28;20091;-76
2022/04/30 10:33:06;;;;;;;7.82;2.63;;;;;;;15.92;42.13;102400.72;4964676;28;20722;-77
2022/04/30 10:35:33;;;;;;;6.72;3.08;;;;;;;16.20;40.25;102407.59;4981950;28;20142;-78
2022/04/30 10:38:07;;;;;;;10.75;2.92;;;;;;;16.01;44.00;102404.22;4980624;28;20333;-77
2022/04/30 10:40:47;;;;;;;7.30;3.20;;;;;;;15.56;42.32;102408.56;4980158;28;20092;-77
2022/04/30 10:43:26;;;;;;;7.72;3.20;;;;;;;15.79;40.79;102386.41;4998590;28;20042;-77
2022/04/30 10:45:52;;;;;;;5.88;2.92;;;;;;;16.02;41.06;102392.78;4984094;28;20062;-77
2022/04/30 10:48:19;;;;;;;5.40;3.10;;;;;;;15.96;43.32;102391.59;4979318;28;20057;-78
2022/04/30 10:50:47;;;;;;;8.23;3.10;;;;;;;15.85;43.89;102384.00;4977628;28;20499;-76
2022/04/30 10:53:14;;;;;;;7.68;3.10;;;;;;;15.57;44.19;102393.69;4978513;28;20109;-76
2022/04/30 10:55:40;;;;;;;4.28;2.60;;;;;;;15.80;42.04;102382.81;4978727;28;20031;-75
2022/04/30 10:58:05;;;;;;;5.07;2.53;;;;;;;15.58;41.62;102379.66;4980355;28;20448;-76
2022/04/30 11:00:31;;;;;;;6.88;2.85;;;;;;;15.83;42.10;102382.50;4977564;28;20467;-76
2022/04/30 11:03:07;;;;;;;6.10;2.17;;;;;;;15.52;41.76;102382.88;4977386;28;20042;-76
2022/04/30 11:05:33;;;;;;;4.95;2.45;;;;;;;15.58;41.37;102377.06;4976895;28;20031;-76
2022/04/30 11:08:03;;;;;;;5.90;3.13;;;;;;;16.15;42.00;102377.47;4965902;28;20898;-76
2022/04/30 11:10:30;;;;;;;6.45;2.70;;;;;;;16.22;40.13;102359.38;5065355;28;20045;-76
2022/04/30 11:13:06;;;;;;;4.40;2.15;;;;;;;16.05;40.23;102368.94;5000055;28;20141;-76
2022/04/30 11:15:32;;;;;;;7.03;2.67;;;;;;;15.51;40.59;102371.59;4986021;28;20494;-76
2022/04/30 11:17:59;;;;;;;7.75;2.88;;;;;;;15.19;42.52;102366.91;4979698;28;20091;-77
2022/04/30 11:20:26;;;;;;;4.63;2.35;;;;;;;15.02;41.23;102368.53;4980283;28;20027;-76
2022/04/30 11:22:56;;;;;;;4.68;2.22;;;;;;;15.24;41.76;102362.06;4979638;28;20786;-76
2022/04/30 11:25:31;;;;;;;4.95;2.45;;;;;;;15.30;40.55;102358.03;4967410;28;20566;-76
2022/04/30 11:27:57;;;;;;;5.00;1.98;;;;;;;15.61;40.94;102342.75;4964641;28;20037;-77
2022/04/30 11:30:23;;;;;;;3.80;2.17;;;;;;;16.06;41.49;102352.25;4983180;28;20039;-76
2022/04/30 11:32:48;;;;;;;5.90;2.00;;;;;;;15.74;39.32;102345.00;4988813;28;20509;-76
2022/04/30 11:35:16;;;;;;;7.07;2.65;;;;;;;15.16;40.36;102351.50;4983551;28;20632;-77
2022/04/30 11:37:45;;;;;;;6.85;2.63;;;;;;;15.03;41.20;102345.81;4990865;28;20089;-77
2022/04/30 11:40:12;;;;;;;4.10;1.80;;;;;;;15.26;40.38;102343.63;4986514;28;20034;-76
2022/04/30 11:42:38;;;;;;;4.63;2.08;;;;;;;15.31;39.18;102336.97;5055503;28;20030;-76
2022/04/30 11:45:04;;;;;;;3.10;2.17;;;;;;;15.62;41.33;102327.91;4985132;28;20091;-76
2022/04/30 11:47:31;;;;;;;3.28;1.70;;;;;;;15.90;41.18;102329.44;4979199;28;20529;-76
2022/04/30 11:50:08;;;;;;;3.97;2.03;;;;;;;16.04;40.66;102316.75;4994324;28;20071;-76
2022/04/30 11:52:35;;;;;;;4.85;1.90;;;;;;;15.68;39.99;102322.06;4985878;28;20196;-78
2022/04/30 11:55:06;;;;;;;4.97;1.92;;;;;;;15.84;38.42;102318.75;4966365;28;20167;-76
2022/04/30 11:57:33;;;;;;;4.50;1.42;;;;;;;15.56;39.64;102319.69;4981198;28;20115;-76
2022/04/30 11:59:58;;;;;;;5.65;1.95;;;;;;;15.59;39.72;102313.31;4992743;28;20038;-76